createdAt,value
2022-11-15T00:02:27.313Z,7.35
2022-11-15T00:04:54.528Z,7.82
2022-11-15T00:07:48.367Z,7.35
2022-11-15T00:10:09.046Z,7.97
2022-11-15T00:12:36.272Z,7.03
2022-11-15T00:15:03.357Z,6.88
2022-11-15T00:17:30.664Z,6.50
2022-11-15T00:19:57.822Z,6.20
2022-11-15T00:22:24.892Z,6.68
2022-11-15T00:24:51.994Z,7.50
2022-11-15T00:27:19.141Z,7.00
2022-11-15T00:29:46.193Z,6.88
2022-11-15T00:32:13.265Z,7.28
2022-11-15T00:34:40.374Z,7.07
2022-11-15T00:37:08.202Z,6.78
2022-11-15T00:39:35.309Z,5.80
2022-11-15T00:42:02.451Z,6.32
2022-11-15T00:44:29.562Z,7.03
2022-11-15T00:46:56.642Z,6.63
2022-11-15T00:49:23.749Z,6.63
2022-11-15T00:51:50.866Z,6.35
2022-11-15T00:54:18.090Z,7.22
2022-11-15T00:56:45.142Z,6.80
2022-11-15T00:59:12.181Z,6.70
2022-11-15T01:01:39.377Z,7.22
2022-11-15T01:04:07.004Z,6.68
2022-11-15T01:06:34.076Z,6.65
2022-11-15T01:09:01.131Z,6.85
2022-11-15T01:11:28.204Z,6.05
2022-11-15T01:13:56.249Z,6.03
2022-11-15T01:16:23.365Z,6.88
2022-11-15T01:18:50.410Z,5.80
2022-11-15T01:21:18.977Z,6.05
2022-11-15T01:23:46.045Z,6.63
2022-11-15T01:26:14.691Z,5.60
2022-11-15T01:28:42.374Z,5.68
2022-11-15T01:31:13.080Z,5.75
2022-11-15T01:33:40.210Z,5.78
2022-11-15T01:36:08.657Z,5.90
2022-11-15T01:38:35.925Z,5.80
2022-11-15T01:41:03.031Z,5.53
2022-11-15T01:43:32.148Z,5.10
2022-11-15T01:46:02.226Z,5.20
2022-11-15T01:48:32.502Z,5.13
2022-11-15T01:51:01.326Z,5.85
2022-11-15T01:53:29.200Z,5.40
2022-11-15T01:55:56.932Z,5.30
2022-11-15T01:58:24.109Z,5.50
2022-11-15T02:00:51.522Z,4.70
2022-11-15T02:03:18.700Z,5.00
2022-11-15T02:05:45.995Z,5.35
2022-11-15T02:08:20.764Z,4.72
2022-11-15T02:10:48.457Z,4.63
2022-11-15T02:13:16.942Z,5.40
2022-11-15T02:16:00.320Z,5.00
2022-11-15T02:18:34.243Z,5.05
2022-11-15T02:21:10.065Z,4.20
2022-11-15T02:24:00.239Z,4.50
2022-11-15T02:26:50.868Z,5.68
2022-11-15T02:29:27.142Z,5.13
2022-11-15T02:32:12.932Z,4.95
2022-11-15T02:34:53.857Z,5.28
2022-11-15T02:37:29.963Z,4.20
2022-11-15T02:40:19.597Z,4.72
2022-11-15T02:43:08.527Z,4.60
2022-11-15T02:45:38.881Z,4.78
2022-11-15T02:48:06.389Z,4.65
2022-11-15T02:50:34.217Z,4.72
2022-11-15T02:53:01.719Z,4.90
2022-11-15T02:55:30.310Z,4.80
2022-11-15T02:58:05.474Z,4.43
2022-11-15T03:00:36.834Z,4.28
2022-11-15T03:03:28.907Z,4.63
2022-11-15T03:06:25.800Z,4.57
2022-11-15T03:08:58.911Z,4.68
2022-11-15T03:11:26.278Z,4.28
2022-11-15T03:14:04.486Z,4.35
2022-11-15T03:16:49.828Z,4.95
2022-11-15T03:19:23.873Z,4.43
2022-11-15T03:21:54.315Z,4.57
2022-11-15T03:24:25.900Z,4.45
2022-11-15T03:26:55.234Z,4.38
2022-11-15T03:31:52.784Z,3.85
2022-11-15T03:34:22.936Z,3.50
2022-11-15T03:36:51.433Z,4.35
2022-11-15T03:39:20.747Z,4.60
2022-11-15T03:42:03.699Z,3.95
2022-11-15T03:44:57.209Z,3.95
2022-11-15T03:47:24.269Z,4.55
2022-11-15T03:49:53.318Z,4.43
2022-11-15T03:54:56.893Z,3.92
2022-11-15T03:57:24.175Z,4.00
2022-11-15T03:59:51.255Z,3.92
2022-11-15T04:02:18.325Z,4.28
2022-11-15T04:04:45.489Z,4.55
2022-11-15T04:07:12.618Z,3.75
2022-11-15T04:09:59.931Z,3.97
2022-11-15T04:12:33.250Z,3.80
2022-11-15T04:15:11.076Z,3.63
2022-11-15T04:17:39.462Z,4.13
2022-11-15T04:20:26.403Z,4.07
2022-11-15T04:23:12.927Z,3.70
2022-11-15T04:25:40.153Z,3.53
2022-11-15T04:28:07.295Z,3.67
2022-11-15T04:30:34.346Z,3.72
2022-11-15T04:33:01.468Z,3.45
2022-11-15T04:35:28.675Z,3.80
2022-11-15T04:37:56.239Z,4.00
2022-11-15T04:40:23.295Z,3.88
2022-11-15T04:42:50.368Z,3.75
2022-11-15T04:45:17.792Z,3.88
2022-11-15T04:47:46.017Z,4.40
2022-11-15T04:50:14.373Z,4.25
2022-11-15T04:52:43.213Z,3.78
2022-11-15T04:55:10.999Z,3.38
2022-11-15T04:57:38.376Z,3.65
2022-11-15T05:00:10.229Z,3.88
2022-11-15T05:02:55.813Z,4.10
2022-11-15T05:05:23.620Z,3.42
2022-11-15T05:07:50.830Z,4.10
2022-11-15T05:10:17.925Z,3.38
2022-11-15T05:12:45.002Z,3.28
2022-11-15T05:15:12.128Z,3.47
2022-11-15T05:17:39.293Z,3.00
2022-11-15T05:20:08.993Z,3.42
2022-11-15T05:22:36.077Z,3.72
2022-11-15T05:25:03.220Z,3.58
2022-11-15T05:27:30.292Z,3.50
2022-11-15T05:29:57.408Z,3.20
2022-11-15T05:32:24.888Z,3.20
2022-11-15T05:34:52.509Z,3.47
2022-11-15T05:37:19.782Z,3.10
2022-11-15T05:39:46.845Z,3.30
2022-11-15T05:42:15.353Z,3.17
2022-11-15T05:44:48.610Z,3.00
2022-11-15T05:47:18.448Z,3.40
2022-11-15T05:49:46.205Z,3.05
2022-11-15T05:52:16.851Z,2.95
2022-11-15T05:54:44.076Z,3.80
2022-11-15T05:57:11.286Z,2.97
2022-11-15T05:59:39.126Z,3.30
2022-11-15T06:02:06.240Z,3.15
2022-11-15T06:04:33.352Z,3.20
2022-11-15T06:07:00.793Z,3.13
2022-11-15T06:09:27.928Z,2.90
2022-11-15T06:11:55.001Z,3.20
2022-11-15T06:14:22.167Z,3.83
2022-11-15T06:16:49.237Z,2.83
2022-11-15T06:19:16.383Z,4.15
2022-11-15T06:21:43.453Z,2.97
2022-11-15T06:24:10.565Z,2.78
2022-11-15T06:26:37.781Z,3.08
2022-11-15T06:29:05.490Z,3.20
2022-11-15T06:31:32.661Z,2.58
2022-11-15T06:33:59.739Z,3.25
2022-11-15T06:36:26.863Z,3.20
2022-11-15T06:38:53.924Z,2.80
2022-11-15T06:41:22.227Z,2.33
2022-11-15T06:43:49.320Z,2.72
2022-11-15T06:46:16.468Z,2.78
2022-11-15T06:48:43.590Z,3.00
2022-11-15T06:51:10.822Z,2.50
2022-11-15T06:53:38.207Z,2.85
2022-11-15T06:56:06.401Z,2.67
2022-11-15T06:58:33.885Z,2.47
2022-11-15T07:01:11.044Z,2.65
2022-11-15T07:03:39.051Z,2.85
2022-11-15T07:06:07.641Z,2.55
2022-11-15T07:08:35.570Z,2.40
2022-11-15T07:11:03.856Z,2.55
2022-11-15T07:13:34.710Z,2.38
2022-11-15T07:16:06.238Z,2.30
2022-11-15T07:18:35.168Z,2.38
2022-11-15T07:21:03.216Z,2.45
2022-11-15T07:23:30.625Z,2.70
2022-11-15T07:25:59.147Z,2.25
2022-11-15T07:28:29.481Z,2.17
2022-11-15T07:30:56.755Z,2.33
2022-11-15T07:33:24.061Z,2.33
2022-11-15T07:35:51.188Z,2.28
2022-11-15T07:38:21.620Z,2.13
2022-11-15T07:40:48.869Z,1.92
2022-11-15T07:43:16.057Z,2.13
2022-11-15T07:45:44.457Z,2.40
2022-11-15T07:48:11.843Z,2.40
2022-11-15T07:50:42.028Z,2.08
2022-11-15T07:53:10.910Z,2.17
2022-11-15T07:55:38.393Z,2.45
2022-11-15T07:58:06.804Z,2.13
2022-11-15T08:00:34.267Z,2.15
2022-11-15T08:03:08.903Z,1.92
2022-11-15T08:05:36.919Z,2.03
2022-11-15T08:08:04.449Z,2.25
2022-11-15T08:10:33.343Z,2.17
2022-11-15T08:13:08.234Z,2.35
2022-11-15T08:15:36.022Z,2.00
2022-11-15T08:18:07.506Z,1.98
2022-11-15T08:20:35.425Z,2.05
2022-11-15T08:23:03.962Z,2.00
2022-11-15T08:25:31.988Z,1.85
2022-11-15T08:28:00.724Z,2.03
2022-11-15T08:30:28.420Z,1.73
2022-11-15T08:32:58.370Z,2.15
2022-11-15T08:35:28.983Z,2.05
2022-11-15T08:37:56.525Z,1.75
2022-11-15T08:40:24.075Z,2.08
2022-11-15T08:42:51.248Z,1.60
2022-11-15T08:45:18.349Z,2.33
2022-11-15T08:47:51.154Z,1.88
2022-11-15T08:50:20.948Z,1.98
2022-11-15T08:52:49.236Z,1.80
2022-11-15T08:55:17.718Z,2.33
2022-11-15T08:57:45.064Z,1.60
2022-11-15T09:00:13.208Z,1.70
2022-11-15T09:02:40.723Z,2.08
2022-11-15T09:05:08.209Z,1.75
2022-11-15T09:07:35.413Z,1.73
2022-11-15T09:10:02.551Z,1.60
2022-11-15T09:12:29.977Z,1.63
2022-11-15T09:14:57.061Z,1.48
2022-11-15T09:17:27.025Z,1.63
2022-11-15T09:19:54.168Z,1.60
2022-11-15T09:22:21.363Z,1.65
2022-11-15T09:24:48.419Z,1.60
2022-11-15T09:27:15.574Z,1.70
2022-11-15T09:29:42.720Z,1.60
2022-11-15T09:32:10.934Z,1.70
2022-11-15T09:34:38.046Z,1.77
2022-11-15T09:37:05.148Z,1.50
2022-11-15T09:39:32.988Z,1.50
2022-11-15T09:42:07.040Z,1.42
2022-11-15T09:44:52.776Z,1.40
2022-11-15T09:47:22.865Z,1.58
2022-11-15T09:49:56.729Z,1.70
2022-11-15T09:54:54.745Z,1.30
2022-11-15T09:57:26.394Z,1.30
2022-11-15T10:00:07.853Z,1.55
2022-11-15T10:02:53.598Z,1.27
2022-11-15T10:05:22.529Z,1.30
2022-11-15T10:10:22.951Z,1.73
2022-11-15T10:12:50.958Z,1.50
2022-11-15T10:15:25.243Z,1.33
2022-11-15T10:18:01.433Z,1.23
2022-11-15T10:20:29.738Z,1.30
2022-11-15T10:23:03.349Z,1.35
2022-11-15T10:25:31.490Z,1.10
2022-11-15T10:28:23.053Z,1.10
2022-11-15T10:30:54.772Z,1.30
2022-11-15T10:33:31.120Z,1.42
2022-11-15T10:36:10.365Z,1.15
2022-11-15T10:38:53.825Z,1.27
2022-11-15T10:41:32.813Z,1.23
2022-11-15T10:44:04.713Z,1.20
2022-11-15T10:46:46.213Z,1.08
2022-11-15T10:49:21.968Z,1.27
2022-11-15T10:51:50.713Z,1.35
2022-11-15T10:54:22.884Z,1.23
2022-11-15T10:56:52.017Z,0.80
2022-11-15T10:59:25.315Z,1.30
2022-11-15T11:01:52.455Z,0.95
2022-11-15T11:04:20.269Z,1.23
2022-11-15T11:06:49.000Z,1.17
2022-11-15T11:09:34.606Z,1.25
2022-11-15T11:12:02.227Z,1.08
2022-11-15T11:14:37.394Z,1.23
2022-11-15T11:17:04.474Z,1.10
2022-11-15T11:19:41.011Z,0.90
2022-11-15T11:22:14.069Z,0.88
2022-11-15T11:24:59.277Z,1.10
2022-11-15T11:27:37.172Z,1.00
2022-11-15T11:30:12.071Z,1.20
2022-11-15T11:32:41.911Z,1.08
2022-11-15T11:35:19.223Z,0.90
2022-11-15T11:38:15.757Z,0.70
2022-11-15T11:40:52.944Z,0.82
2022-11-15T11:43:28.692Z,0.80
2022-11-15T11:46:14.550Z,1.10
2022-11-15T11:48:44.290Z,1.02
2022-11-15T11:51:20.553Z,1.00
2022-11-15T11:53:59.549Z,0.70
2022-11-15T11:56:30.788Z,0.80
2022-11-15T11:59:02.419Z,1.00
2022-11-15T12:01:36.182Z,1.05
2022-11-15T12:04:06.635Z,0.90
2022-11-15T12:06:37.058Z,0.70
2022-11-15T12:09:08.812Z,1.00
2022-11-15T12:11:53.631Z,0.80
2022-11-15T12:14:41.067Z,0.82
2022-11-15T12:19:35.995Z,0.68
2022-11-15T12:22:10.836Z,0.68
2022-11-15T12:24:43.602Z,0.93
2022-11-15T12:27:10.690Z,1.02
2022-11-15T12:29:42.790Z,0.77
2022-11-15T12:32:27.075Z,0.70
2022-11-15T12:34:55.145Z,0.80
2022-11-15T12:37:38.868Z,0.93
2022-11-15T12:40:09.070Z,1.20
2022-11-15T12:42:37.347Z,0.73
2022-11-15T12:45:24.464Z,0.70
2022-11-15T12:47:51.539Z,0.70
2022-11-15T12:50:38.587Z,1.20
2022-11-15T12:53:41.194Z,1.00
2022-11-15T12:56:14.122Z,0.73
2022-11-15T12:59:00.539Z,0.73
2022-11-15T13:01:34.214Z,0.88
2022-11-15T13:04:13.486Z,0.63
2022-11-15T13:06:45.374Z,0.80
2022-11-15T13:09:32.701Z,0.60
2022-11-15T13:12:02.832Z,0.70
2022-11-15T13:14:40.447Z,0.60
2022-11-15T13:17:26.218Z,0.82
2022-11-15T13:20:11.529Z,0.68
2022-11-15T13:23:00.589Z,0.73
2022-11-15T13:25:46.265Z,1.15
2022-11-15T13:28:16.219Z,0.63
2022-11-15T13:30:51.417Z,0.63
2022-11-15T13:33:28.388Z,0.70
2022-11-15T13:35:59.090Z,0.68
2022-11-15T13:38:27.674Z,0.70
2022-11-15T13:40:54.769Z,0.90
2022-11-15T13:43:25.115Z,0.70
2022-11-15T13:46:07.644Z,0.70
2022-11-15T13:48:35.266Z,0.60
2022-11-15T13:51:07.905Z,0.77
2022-11-15T13:53:36.004Z,0.60
2022-11-15T13:56:04.539Z,0.60
2022-11-15T13:58:32.454Z,0.80
2022-11-15T14:01:02.148Z,0.68
2022-11-15T14:03:30.529Z,0.73
2022-11-15T14:06:08.607Z,1.00
2022-11-15T14:08:36.658Z,0.80
2022-11-15T14:11:07.852Z,0.75
2022-11-15T14:13:35.485Z,1.30
2022-11-15T14:16:15.407Z,1.00
2022-11-15T14:18:52.235Z,0.80
2022-11-15T14:21:20.149Z,0.68
2022-11-15T14:23:47.881Z,0.90
2022-11-15T14:26:47.615Z,0.90
2022-11-15T14:29:27.601Z,0.60
2022-11-15T14:31:55.473Z,0.60
2022-11-15T14:34:23.201Z,0.70
2022-11-15T14:36:50.307Z,0.70
2022-11-15T14:39:17.515Z,0.80
2022-11-15T14:41:45.134Z,0.70
2022-11-15T14:44:13.258Z,0.80
2022-11-15T14:46:40.551Z,0.70
2022-11-15T14:49:07.712Z,0.60
2022-11-15T14:51:35.255Z,0.80
2022-11-15T14:54:04.463Z,1.00
2022-11-15T14:56:31.521Z,0.60
2022-11-15T14:58:59.131Z,0.65
2022-11-15T15:01:27.158Z,0.60
2022-11-15T15:03:59.387Z,0.60
2022-11-15T15:06:26.786Z,0.70
2022-11-15T15:08:53.905Z,0.70
2022-11-15T15:11:25.094Z,0.80
2022-11-15T15:13:53.556Z,0.63
2022-11-15T15:16:21.158Z,0.70
2022-11-15T15:18:49.055Z,0.70
2022-11-15T15:21:26.239Z,0.70
2022-11-15T15:23:56.694Z,0.60
2022-11-15T15:26:24.884Z,0.80
2022-11-15T15:28:52.742Z,0.70
2022-11-15T15:31:20.067Z,0.65
2022-11-15T15:33:47.224Z,0.80
2022-11-15T15:36:15.180Z,0.63
2022-11-15T15:38:43.335Z,0.68
2022-11-15T15:41:13.880Z,0.70
2022-11-15T15:43:41.323Z,0.80
2022-11-15T15:46:18.721Z,1.08
2022-11-15T15:48:46.301Z,0.70
2022-11-15T15:51:19.825Z,0.77
2022-11-15T15:53:47.936Z,0.68
2022-11-15T15:56:15.425Z,0.65
2022-11-15T15:58:42.539Z,0.80
2022-11-15T16:01:09.699Z,0.50
2022-11-15T16:03:36.812Z,0.70
2022-11-15T16:06:05.308Z,0.60
2022-11-15T16:08:47.495Z,0.70
2022-11-15T16:11:19.598Z,0.63
2022-11-15T16:13:46.678Z,0.68
2022-11-15T16:16:15.404Z,0.90
2022-11-15T16:18:42.516Z,0.60
2022-11-15T16:21:10.253Z,1.00
2022-11-15T16:23:37.422Z,0.75
2022-11-15T16:26:08.672Z,0.75
2022-11-15T16:28:36.072Z,0.68
2022-11-15T16:31:05.399Z,0.75
2022-11-15T16:38:27.489Z,0.90
2022-11-15T16:40:54.603Z,0.73
2022-11-15T16:43:21.825Z,0.75
2022-11-15T16:45:50.223Z,0.90
2022-11-15T16:48:25.507Z,0.80
2022-11-15T16:50:56.255Z,0.70
2022-11-15T16:53:23.866Z,0.90
2022-11-15T16:55:50.941Z,0.80
2022-11-15T16:58:18.116Z,0.70
2022-11-15T17:00:45.325Z,1.00
2022-11-15T17:03:12.505Z,0.98
2022-11-15T17:05:39.593Z,0.98
2022-11-15T17:08:06.683Z,0.85
2022-11-15T17:10:33.873Z,1.00
2022-11-15T17:13:00.984Z,0.80
2022-11-15T17:15:28.220Z,0.73
2022-11-15T17:17:55.767Z,0.77
2022-11-15T17:20:24.292Z,0.98
2022-11-15T17:22:52.618Z,0.90
2022-11-15T17:25:20.058Z,1.30
2022-11-15T17:27:47.286Z,3.80
2022-11-15T17:30:20.230Z,12.52
2022-11-15T17:32:47.904Z,21.80
2022-11-15T17:35:15.996Z,32.85
2022-11-15T17:37:43.763Z,53.78
2022-11-15T17:40:11.117Z,73.47
2022-11-15T17:42:38.369Z,93.07
2022-11-15T17:45:09.848Z,82.88
2022-11-15T17:47:37.468Z,97.53
2022-11-15T17:50:04.911Z,111.78
2022-11-15T17:52:32.133Z,113.30
2022-11-15T17:54:59.212Z,121.40
2022-11-15T17:57:26.329Z,117.25
2022-11-15T17:59:53.456Z,122.18
2022-11-15T18:02:20.557Z,118.28
2022-11-15T18:04:47.640Z,126.00
2022-11-15T18:07:14.814Z,117.18
2022-11-15T18:09:44.253Z,117.15
2022-11-15T18:12:11.947Z,115.20
2022-11-15T18:14:39.104Z,111.78
2022-11-15T18:17:06.303Z,111.10
2022-11-15T18:19:33.616Z,103.95
2022-11-15T18:22:01.307Z,103.45
2022-11-15T18:24:32.548Z,101.93
2022-11-15T18:27:00.278Z,101.82
2022-11-15T18:29:27.871Z,96.07
2022-11-15T18:31:55.713Z,95.75
2022-11-15T18:34:24.095Z,87.40
2022-11-15T18:36:53.966Z,85.05
2022-11-15T18:39:21.089Z,78.28
2022-11-15T18:41:48.631Z,78.60
2022-11-15T18:44:17.754Z,69.22
2022-11-15T18:46:45.159Z,62.45
2022-11-15T18:49:13.293Z,64.22
2022-11-15T18:51:42.055Z,57.20
2022-11-15T18:54:10.863Z,54.92
2022-11-15T18:56:38.191Z,47.00
2022-11-15T18:59:05.583Z,45.50
2022-11-15T19:01:34.617Z,47.08
2022-11-15T19:04:09.601Z,42.47
2022-11-15T19:06:41.295Z,43.72
2022-11-15T19:09:09.082Z,39.15
2022-11-15T19:11:37.358Z,34.70
2022-11-15T19:14:05.783Z,30.45
2022-11-15T19:16:34.170Z,26.13
2022-11-15T19:19:02.815Z,29.05
2022-11-15T19:21:31.090Z,30.98
2022-11-15T19:23:58.667Z,23.52
2022-11-15T19:26:26.410Z,20.67
2022-11-15T19:28:57.690Z,19.30
2022-11-15T19:31:25.578Z,19.30
2022-11-15T19:33:53.589Z,20.67
2022-11-15T19:36:20.658Z,17.23
2022-11-15T19:38:47.993Z,14.13
2022-11-15T19:41:16.659Z,15.13
2022-11-15T19:43:43.767Z,13.40
2022-11-15T19:46:12.049Z,11.57
2022-11-15T19:48:39.617Z,12.40
2022-11-15T19:51:08.053Z,11.38
2022-11-15T19:53:36.016Z,10.07
2022-11-15T19:56:13.534Z,9.95
2022-11-15T19:58:41.516Z,10.65
2022-11-15T20:01:08.663Z,8.07
2022-11-15T20:03:36.879Z,8.13
2022-11-15T20:06:15.854Z,8.85
2022-11-15T20:08:43.649Z,7.78
2022-11-15T20:11:11.770Z,6.57
2022-11-15T20:13:38.985Z,5.85
2022-11-15T20:16:06.414Z,6.50
2022-11-15T20:18:34.620Z,5.43
2022-11-15T20:21:02.918Z,5.30
2022-11-15T20:23:30.028Z,6.07
2022-11-15T20:25:57.312Z,5.78
2022-11-15T20:28:25.913Z,4.78
2022-11-15T20:30:57.251Z,4.03
2022-11-15T20:33:24.401Z,4.35
2022-11-15T20:35:51.601Z,4.40
2022-11-15T20:38:20.431Z,4.57
2022-11-15T20:40:48.226Z,4.25
2022-11-15T20:43:16.470Z,3.78
2022-11-15T20:45:44.085Z,4.07
2022-11-15T20:48:13.845Z,3.70
2022-11-15T20:50:43.339Z,3.17
2022-11-15T20:53:12.034Z,4.00
2022-11-15T20:55:42.919Z,3.30
2022-11-15T20:58:10.413Z,3.13
2022-11-15T21:00:37.914Z,2.97
2022-11-15T21:03:06.952Z,3.65
2022-11-15T21:05:35.026Z,3.38
2022-11-15T21:08:02.337Z,3.17
2022-11-15T21:10:48.570Z,3.33
2022-11-15T21:13:15.689Z,2.92
2022-11-15T21:15:42.752Z,2.90
2022-11-15T21:18:09.827Z,2.65
2022-11-15T21:20:36.946Z,2.92
2022-11-15T21:23:04.062Z,2.97
2022-11-15T21:25:31.342Z,2.80
2022-11-15T21:27:58.573Z,3.20
2022-11-15T21:30:25.713Z,2.90
2022-11-15T21:32:52.811Z,2.67
2022-11-15T21:35:19.978Z,2.92
2022-11-15T21:37:50.524Z,2.97
2022-11-15T21:40:20.672Z,2.50
2022-11-15T21:42:47.838Z,2.80
2022-11-15T21:45:14.941Z,2.53
2022-11-15T21:47:46.050Z,2.80
2022-11-15T21:50:13.347Z,3.03
2022-11-15T21:52:40.688Z,2.30
2022-11-15T21:55:08.284Z,2.45
2022-11-15T21:57:35.443Z,2.92
2022-11-15T22:00:21.135Z,2.50
2022-11-15T22:02:48.255Z,2.50
2022-11-15T22:05:15.517Z,2.60
2022-11-15T22:07:42.592Z,2.80
2022-11-15T22:10:09.806Z,2.22
2022-11-15T22:12:37.396Z,2.65
2022-11-15T22:15:04.636Z,2.50
2022-11-15T22:17:50.462Z,2.72
2022-11-15T22:20:42.903Z,2.72
2022-11-15T22:23:04.618Z,2.53
2022-11-15T22:25:31.735Z,2.95
2022-11-15T22:27:58.831Z,2.55
2022-11-15T22:30:27.071Z,2.42
2022-11-15T22:32:54.151Z,2.20
2022-11-15T22:35:21.229Z,2.53
2022-11-15T22:37:48.303Z,2.33
2022-11-15T22:40:15.467Z,2.47
2022-11-15T22:42:42.557Z,2.60
2022-11-15T22:45:09.861Z,2.70
2022-11-15T22:47:36.958Z,2.00
2022-11-15T22:50:05.415Z,2.42
2022-11-15T22:52:32.511Z,2.42
2022-11-15T22:54:59.591Z,2.45
2022-11-15T22:57:26.725Z,2.88
2022-11-15T22:59:53.886Z,3.03
2022-11-15T23:02:20.966Z,2.55
2022-11-15T23:04:48.109Z,2.85
2022-11-15T23:07:15.233Z,2.00
2022-11-15T23:09:44.430Z,2.45
2022-11-15T23:12:33.417Z,2.50
2022-11-15T23:15:00.500Z,2.45
2022-11-15T23:17:27.664Z,2.15
2022-11-15T23:19:54.743Z,2.13
2022-11-15T23:22:40.338Z,2.35
2022-11-15T23:25:07.583Z,2.20
2022-11-15T23:27:34.685Z,2.20
2022-11-15T23:30:24.683Z,2.33
2022-11-15T23:33:10.453Z,2.40
2022-11-15T23:35:37.598Z,2.75
2022-11-15T23:38:04.650Z,2.60
2022-11-15T23:40:31.721Z,2.55
2022-11-15T23:42:58.793Z,2.55
2022-11-15T23:45:25.856Z,2.53
2022-11-15T23:47:55.860Z,2.30
2022-11-15T23:50:27.104Z,2.22
2022-11-15T23:52:54.175Z,2.25
2022-11-15T23:55:21.258Z,2.05
2022-11-15T23:57:48.405Z,2.42
